Paraje, New Mexico
Current Conditions -  °F | °C
As of 10:56 PM on Saturday 25 Oct 2014 (Local Time) from KGNT Reporting Station
Clear Clear  
Wind Chill: 44°   Ceiling: Unl
Heat Index: 46°   Visibility: 10mi
Dew Point: 30°   Wind: 5mph
Humidity: 53%   Direction: 330°NNW
Pressure: 30.29"   Gusts: NA
Location:  35.0048°N, 107.383°W
Report Text: KGNT 260456Z AUTO 33004KT 10SM CLR 08/M01 A3029 RMK AO2
Loading
Personal Weather Stations






























Interactive Weather Map
Tropical Storm Tracking
New forecast layout! Learn more

10-Day Weather Forecast

Advertisements
Track Severe Weather on mobile